x

Bodega Bay - 48nm Nnw Of San Francisco, Ca (46013) Wave Buoy

7:50pm - Tue 28th Jul 2015 All times are PDT. -7 hours from GMT.

  • Sig Wave height 5.2ft
  • Peak Period 9s
  • Average Period 8s
  • Wind
    4mph
  • Sea Temp 58°f
  • Air Temp 60°f
  • Sea Pressure 1010.8mb
  • Bodega Bay - 48nm Nnw Of San Francisco, Ca
  • Bodega Bay - 48nm Nnw Of San Francisco, Ca

More Historic Weather Station data

Upgrade to MSW Pro to gain access to the past 30 days of data for over 8000 Wavebouys and Weather Stations around the globe.

Join Pro

Comparision Forecast

View Surf forecast
   
Tue 07/28 7:50pm 5ft 9s 8s 4
mph
1010.8mb 58f 60f
6:50pm 6ft 9s 8s 4
mph
1010.8mb 58f 59f
5:50pm 5.5ft 17s 8s 7
mph
1011mb 58f 59f
4:50pm 6ft 17s 8s 7
mph
1011.1mb 58f 59f
3:50pm 5ft 9s 8s 4 7 mph 1011.3mb 58f 59f
2:50pm 5.5ft 17s 8s 2 4 mph 1011.9mb 56f 58f
1:50pm 5.5ft 9s 8s 2 4 mph 1012.3mb 56f 57f
12:50pm 6ft 17s 8s 2 4 mph 1012.5mb 55f 56f
11:50am 5.5ft 10s 8s 4
mph
1012.5mb 55f 56f
10:50am 6ft 17s 8s 4 7 mph 1012.2mb 54f 55f
9:50am 6.5ft 9s 8s 4 7 mph 1012.2mb 54f 55f
8:50am 6ft 9s 7s 4 7 mph 1012.1mb 53f 54f
7:50am 6.5ft 8s 7s 7 9 mph 1011.7mb 53f 54f
6:50am 6ft 8s 7s 4
mph
1011.3mb 53f 54f
5:50am 6ft 9s 7s 4 7 mph 1011.2mb 53f 53f
4:50am 6ft 9s 7s 9
mph
1011mb 53f 54f
3:50am 6.5ft 9s 7s 13 16 mph 1010.9mb 53f 54f
2:50am 6.5ft 9s 7s 13 16 mph 1011.3mb 53f 54f
1:50am 6ft 8s 6s 13 18 mph 1011.6mb 53f 55f
12:50am 7ft 9s 6s 13 16 mph 1012mb 53f 55f
Mon 07/27 11:50pm 7ft 8s 6s 16 18 mph 1012.2mb 53f 56f
10:50pm 7ft 8s 6s 20 22 mph 1012mb 54f 56f
9:50pm 8ft 9s 6s 22 27 mph 1011.8mb 54f 57f
8:50pm 8ft 8s 6s 22 27 mph 1011.8mb 54f 57f
7:50pm 7ft 8s 6s 25 29 mph 1011.5mb 54f 58f
6:50pm 6.5ft 8s 6s 22 27 mph 1012.2mb 54f 58f
5:50pm 5.5ft 8s 6s 22 25 mph 1012.7mb 54f 58f
4:50pm 5.5ft 7s 6s 16 18 mph 1013.7mb 54f 57f
3:50pm 5.5ft 8s 6s 16 20 mph 1014.1mb 54f 57f
2:50pm 5ft 7s 6s 16 18 mph 1014.5mb 54f 56f
1:50pm 5ft 7s 6s 13 18 mph 1014.8mb 54f 55f
12:50pm 5ft 7s 6s 13 16 mph 1015.1mb 54f 55f
11:50am 5ft 7s 6s 11 13 mph 1015.1mb 53f 55f
10:50am 6ft 7s 6s 11 13 mph 1014.8mb 53f 55f
9:50am 6ft 10s 6s 13 16 mph 1014.4mb 53f 55f
8:50am 6.5ft 8s 6s 16 18 mph 1014.1mb 53f 55f
7:50am 6.5ft 8s 6s 20 25 mph 1013.5mb 53f 56f
6:50am 7ft 7s 6s 22 29 mph 1013.3mb 53f 56f
5:50am 6.5ft 7s 6s 20 22 mph 1013.1mb 53f 55f
4:50am 6.5ft 8s 6s 20 25 mph 1012.7mb 53f 56f
3:50am 6.5ft 8s 6s 20 25 mph 1012.9mb 53f 56f
2:50am 7ft 8s 6s 25 27 mph 1012.6mb 53f 56f
1:50am 7.5ft 8s 6s 29 34 mph 1012.7mb 53f 56f
12:50am 8.5ft 8s 6s 29 38 mph 1013mb 53f 57f
Sun 07/26 11:50pm 8ft 7s 6s 31 38 mph 1013mb 54f 57f
10:50pm 8.5ft 8s 6s 34 38 mph 1013mb 54f 57f
9:50pm 8.5ft 5s 6s 31 38 mph 1012.7mb 56f 58f
8:50pm 9ft 8s 6s 31 38 mph 1012.3mb 56f 58f
7:50pm 9ft 8s 6s 34 40 mph 1011.9mb 56f 58f
6:50pm 8.5ft 8s 6s 31 38 mph 1012.1mb 56f 59f
5:50pm 9ft 8s 6s 34 38 mph 1012mb 56f 59f
4:50pm 9ft 7s 6s 31 43 mph 1012.2mb 56f 58f
3:50pm 8ft 6s 6s 31 38 mph 1012.7mb 56f 58f
2:50pm 8ft 12s 6s 29 34 mph 1013.4mb 56f 58f
1:50pm 7ft 13s 6s 25 31 mph 1014.2mb 57f 58f
12:50pm 6ft 7s 6s 18 22 mph 1014.9mb 57f 57f
11:50am 6ft 8s 6s 13 18 mph 1015mb 56f 56f
10:50am 6ft 7s 6s 11 13 mph 1014.6mb 56f 56f
9:50am 6ft 8s 6s 11 13 mph 1014.5mb 56f 55f
8:50am 6ft 7s 6s 13
mph
1014.3mb 56f 55f
7:50am 6ft 8s 6s 13 16 mph 1014mb 56f 55f
6:50am 6ft 7s 6s 16 18 mph 1013.8mb 56f 55f
5:50am 6ft 7s 6s 11 13 mph 1013.5mb 57f 55f
4:50am 5ft 6s 6s 9 11 mph 1013.2mb 57f 55f
3:50am 5ft 7s 6s 16 18 mph 1013.1mb 57f 56f
2:50am 5ft 6s 5s 16 20 mph 1013.5mb 57f 57f
1:50am 4.5ft 6s 5s 18 22 mph 1013.8mb 57f 58f
12:50am 4.5ft 5s 5s 20 25 mph 1014.2mb 57f 57f
Sat 07/25 11:50pm 5.5ft 6s 5s 22 27 mph 1014.3mb 57f 58f
10:50pm 5.5ft 6s 5s 22 27 mph 1014.7mb 57f 58f
9:50pm 5ft 5s 5s 25 29 mph 1014.4mb 57f 59f
8:50pm 5.5ft 6s 5s 27 31 mph 1014.2mb 57f 59f
7:50pm 5.5ft 6s 5s 22 27 mph 1014.6mb 57f 59f
6:50pm 5ft 5s 5s 22 27 mph 1015.7mb 57f 58f
5:50pm 4.5ft 6s 5s 20 27 mph 1016.4mb 57f 58f
4:50pm 4.5ft 12s 5s 18 25 mph 1017.2mb 57f 58f
3:50pm 4.5ft 8s 5s 16 20 mph 1017.7mb 57f 58f
2:50pm 3.5ft 13s 5s 18 20 mph 1018.2mb 57f 58f
1:50pm 3.5ft 13s 5s 18 22 mph 1018.7mb 57f 59f
12:50pm 4ft 13s 5s 13 16 mph 1019mb 57f 58f
11:50am 3.5ft 5s 5s 11 13 mph 1019.2mb 57f 57f
10:50am 4ft 13s 5s 13 16 mph 1019.2mb 57f 56f
9:50am 4ft 8s 5s 20 22 mph 1018.9mb 57f 56f
8:50am 4ft 13s 5s 20 25 mph 1018.7mb 57f 56f
7:50am 3.5ft 14s 5s 18 20 mph 1018.6mb 57f 56f
6:50am 3.5ft 8s 5s 16 18 mph 1018.4mb 57f 57f
5:50am 4ft 13s 5s 16 18 mph 1017.8mb 57f 58f
4:50am 4ft 8s 5s 20 27 mph 1017.5mb 57f 58f
3:50am 4ft 9s 5s 18 20 mph 1017.5mb 57f 57f